sensor_id;sensor_type;location;lat;lon;timestamp;temperature;humidity
22503;DHT22;11418;48.118;9.992;2023-03-23T00:01:16;5.40;99.90
22503;DHT22;11418;48.118;9.992;2023-03-23T00:05:20;5.50;99.90
22503;DHT22;11418;48.118;9.992;2023-03-23T00:09:20;5.60;99.90
22503;DHT22;11418;48.118;9.992;2023-03-23T00:13:24;6.60;99.90
22503;DHT22;11418;48.118;9.992;2023-03-23T00:17:25;6.40;99.90
22503;DHT22;11418;48.118;9.992;2023-03-23T00:21:30;6.10;99.90
22503;DHT22;11418;48.118;9.992;2023-03-23T00:25:34;6.00;99.90
22503;DHT22;11418;48.118;9.992;2023-03-23T00:29:35;5.50;99.90
22503;DHT22;11418;48.118;9.992;2023-03-23T00:33:37;5.40;99.90
22503;DHT22;11418;48.118;9.992;2023-03-23T00:37:43;5.80;99.90
22503;DHT22;11418;48.118;9.992;2023-03-23T00:41:45;6.10;99.90
22503;DHT22;11418;48.118;9.992;2023-03-23T00:45:46;5.90;99.90
22503;DHT22;11418;48.118;9.992;2023-03-23T00:49:52;5.90;99.90
22503;DHT22;11418;48.118;9.992;2023-03-23T00:53:56;5.90;99.90
22503;DHT22;11418;48.118;9.992;2023-03-23T00:57:56;5.90;99.90
22503;DHT22;11418;48.118;9.992;2023-03-23T01:01:57;6.10;99.90
22503;DHT22;11418;48.118;9.992;2023-03-23T01:05:57;6.00;99.90
22503;DHT22;11418;48.118;9.992;2023-03-23T01:09:58;6.10;99.90
22503;DHT22;11418;48.118;9.992;2023-03-23T01:14:02;6.00;99.90
22503;DHT22;11418;48.118;9.992;2023-03-23T01:18:03;6.00;99.90
22503;DHT22;11418;48.118;9.992;2023-03-23T01:22:03;5.90;99.90
22503;DHT22;11418;48.118;9.992;2023-03-23T01:26:12;5.90;99.90
22503;DHT22;11418;48.118;9.992;2023-03-23T01:30:14;5.90;99.90
22503;DHT22;11418;48.118;9.992;2023-03-23T01:34:15;6.20;99.90
22503;DHT22;11418;48.118;9.992;2023-03-23T01:38:15;6.50;99.90
22503;DHT22;11418;48.118;9.992;2023-03-23T01:42:16;6.70;99.90
22503;DHT22;11418;48.118;9.992;2023-03-23T01:46:17;7.00;99.90
22503;DHT22;11418;48.118;9.992;2023-03-23T01:50:19;7.20;99.90
22503;DHT22;11418;48.118;9.992;2023-03-23T01:54:24;7.10;99.90
22503;DHT22;11418;48.118;9.992;2023-03-23T01:58:27;7.10;99.90
22503;DHT22;11418;48.118;9.992;2023-03-23T02:02:30;7.20;99.90
22503;DHT22;11418;48.118;9.992;2023-03-23T02:06:32;7.50;99.90
22503;DHT22;11418;48.118;9.992;2023-03-23T02:10:35;7.30;99.90
22503;DHT22;11418;48.118;9.992;2023-03-23T02:14:35;7.20;99.90
22503;DHT22;11418;48.118;9.992;2023-03-23T02:18:44;7.50;99.90
22503;DHT22;11418;48.118;9.992;2023-03-23T02:32:04;7.10;99.90
22503;DHT22;11418;48.118;9.992;2023-03-23T02:40:16;7.10;99.90
22503;DHT22;11418;48.118;9.992;2023-03-23T02:44:18;7.10;99.90
22503;DHT22;11418;48.118;9.992;2023-03-23T02:48:20;7.20;99.90
22503;DHT22;11418;48.118;9.992;2023-03-23T02:52:33;7.30;99.90
22503;DHT22;11418;48.118;9.992;2023-03-23T02:56:35;7.20;99.90
22503;DHT22;11418;48.118;9.992;2023-03-23T03:00:38;7.30;99.90
22503;DHT22;11418;48.118;9.992;2023-03-23T03:04:40;7.70;99.90
22503;DHT22;11418;48.118;9.992;2023-03-23T03:09:07;8.20;99.90
22503;DHT22;11418;48.118;9.992;2023-03-23T03:13:32;8.10;99.90
22503;DHT22;11418;48.118;9.992;2023-03-23T03:17:38;7.90;99.90
22503;DHT22;11418;48.118;9.992;2023-03-23T03:21:43;7.70;99.90
22503;DHT22;11418;48.118;9.992;2023-03-23T03:25:45;7.90;99.90
22503;DHT22;11418;48.118;9.992;2023-03-23T03:29:51;8.10;99.90
22503;DHT22;11418;48.118;9.992;2023-03-23T03:33:54;8.10;99.90
22503;DHT22;11418;48.118;9.992;2023-03-23T03:37:55;8.00;99.90
22503;DHT22;11418;48.118;9.992;2023-03-23T03:41:56;8.10;99.90
22503;DHT22;11418;48.118;9.992;2023-03-23T03:45:56;8.40;99.90
22503;DHT22;11418;48.118;9.992;2023-03-23T03:49:57;8.40;99.90
22503;DHT22;11418;48.118;9.992;2023-03-23T03:53:57;8.40;99.90
22503;DHT22;11418;48.118;9.992;2023-03-23T03:57:58;8.90;99.90
22503;DHT22;11418;48.118;9.992;2023-03-23T04:01:59;9.50;99.90
22503;DHT22;11418;48.118;9.992;2023-03-23T04:05:59;9.80;99.90
22503;DHT22;11418;48.118;9.992;2023-03-23T04:10:00;9.80;99.90
22503;DHT22;11418;48.118;9.992;2023-03-23T04:14:01;9.70;99.90
22503;DHT22;11418;48.118;9.992;2023-03-23T04:18:02;9.90;99.90
22503;DHT22;11418;48.118;9.992;2023-03-23T04:22:05;10.10;99.90
22503;DHT22;11418;48.118;9.992;2023-03-23T04:26:05;10.20;99.90
22503;DHT22;11418;48.118;9.992;2023-03-23T04:30:06;10.30;99.90
22503;DHT22;11418;48.118;9.992;2023-03-23T04:34:07;10.30;99.90
22503;DHT22;11418;48.118;9.992;2023-03-23T04:38:09;10.40;99.90
22503;DHT22;11418;48.118;9.992;2023-03-23T04:42:09;10.50;99.90
22503;DHT22;11418;48.118;9.992;2023-03-23T04:46:11;10.60;99.90
22503;DHT22;11418;48.118;9.992;2023-03-23T04:50:12;10.60;99.90
22503;DHT22;11418;48.118;9.992;2023-03-23T04:54:13;10.70;99.90
22503;DHT22;11418;48.118;9.992;2023-03-23T04:58:15;10.80;99.90
22503;DHT22;11418;48.118;9.992;2023-03-23T05:02:16;10.80;99.90
22503;DHT22;11418;48.118;9.992;2023-03-23T05:06:17;10.80;99.90
22503;DHT22;11418;48.118;9.992;2023-03-23T05:10:18;10.80;99.90
22503;DHT22;11418;48.118;9.992;2023-03-23T05:14:18;10.70;99.90
22503;DHT22;11418;48.118;9.992;2023-03-23T05:18:19;10.80;99.90
22503;DHT22;11418;48.118;9.992;2023-03-23T05:22:23;10.80;99.90
22503;DHT22;11418;48.118;9.992;2023-03-23T05:26:23;10.90;99.90
22503;DHT22;11418;48.118;9.992;2023-03-23T05:30:25;11.00;99.90
22503;DHT22;11418;48.118;9.992;2023-03-23T05:34:26;11.00;99.90
22503;DHT22;11418;48.118;9.992;2023-03-23T05:38:27;11.20;99.90
22503;DHT22;11418;48.118;9.992;2023-03-23T05:42:28;11.20;99.90
22503;DHT22;11418;48.118;9.992;2023-03-23T05:46:29;11.30;99.90
22503;DHT22;11418;48.118;9.992;2023-03-23T05:50:29;11.40;99.90
22503;DHT22;11418;48.118;9.992;2023-03-23T05:54:30;11.40;99.90
22503;DHT22;11418;48.118;9.992;2023-03-23T05:58:30;11.50;99.90
22503;DHT22;11418;48.118;9.992;2023-03-23T06:02:31;11.70;99.90
22503;DHT22;11418;48.118;9.992;2023-03-23T06:06:32;11.50;99.90
22503;DHT22;11418;48.118;9.992;2023-03-23T06:10:33;11.60;99.90
22503;DHT22;11418;48.118;9.992;2023-03-23T06:14:36;11.70;99.90
22503;DHT22;11418;48.118;9.992;2023-03-23T06:18:37;12.00;99.90
22503;DHT22;11418;48.118;9.992;2023-03-23T06:22:40;12.20;99.90
22503;DHT22;11418;48.118;9.992;2023-03-23T06:26:41;12.50;99.90
22503;DHT22;11418;48.118;9.992;2023-03-23T06:30:41;12.70;99.90
22503;DHT22;11418;48.118;9.992;2023-03-23T06:34:42;12.90;99.90
22503;DHT22;11418;48.118;9.992;2023-03-23T06:38:44;13.00;99.90
22503;DHT22;11418;48.118;9.992;2023-03-23T06:42:45;13.10;99.90
22503;DHT22;11418;48.118;9.992;2023-03-23T06:46:45;13.20;99.90
22503;DHT22;11418;48.118;9.992;2023-03-23T06:50:46;13.20;99.90
22503;DHT22;11418;48.118;9.992;2023-03-23T06:54:47;13.20;99.90
22503;DHT22;11418;48.118;9.992;2023-03-23T06:58:47;13.20;99.90
22503;DHT22;11418;48.118;9.992;2023-03-23T07:02:48;13.20;99.90
22503;DHT22;11418;48.118;9.992;2023-03-23T07:06:49;13.40;99.90
22503;DHT22;11418;48.118;9.992;2023-03-23T07:10:54;13.70;99.90
22503;DHT22;11418;48.118;9.992;2023-03-23T07:14:56;14.00;99.90
22503;DHT22;11418;48.118;9.992;2023-03-23T07:18:57;14.40;99.90
22503;DHT22;11418;48.118;9.992;2023-03-23T07:22:58;14.70;99.90
22503;DHT22;11418;48.118;9.992;2023-03-23T07:26:58;14.70;99.90
22503;DHT22;11418;48.118;9.992;2023-03-23T07:30:59;14.60;99.90
22503;DHT22;11418;48.118;9.992;2023-03-23T07:34:59;14.80;99.90
22503;DHT22;11418;48.118;9.992;2023-03-23T07:39:00;14.70;99.90
22503;DHT22;11418;48.118;9.992;2023-03-23T07:43:03;14.70;99.90
22503;DHT22;11418;48.118;9.992;2023-03-23T07:47:03;14.80;99.90
22503;DHT22;11418;48.118;9.992;2023-03-23T07:51:05;14.80;99.90
22503;DHT22;11418;48.118;9.992;2023-03-23T07:55:08;14.90;99.90
22503;DHT22;11418;48.118;9.992;2023-03-23T07:59:09;15.20;99.90
22503;DHT22;11418;48.118;9.992;2023-03-23T08:03:10;15.50;99.90
22503;DHT22;11418;48.118;9.992;2023-03-23T08:07:11;15.60;99.90
22503;DHT22;11418;48.118;9.992;2023-03-23T08:11:13;15.90;99.90
22503;DHT22;11418;48.118;9.992;2023-03-23T08:15:15;16.00;99.90
22503;DHT22;11418;48.118;9.992;2023-03-23T08:19:16;16.10;99.90
22503;DHT22;11418;48.118;9.992;2023-03-23T08:23:16;15.80;99.90
22503;DHT22;11418;48.118;9.992;2023-03-23T08:27:17;15.70;99.90
22503;DHT22;11418;48.118;9.992;2023-03-23T08:31:17;15.50;99.90
22503;DHT22;11418;48.118;9.992;2023-03-23T08:35:19;15.50;99.90
22503;DHT22;11418;48.118;9.992;2023-03-23T08:39:20;15.70;99.90
22503;DHT22;11418;48.118;9.992;2023-03-23T08:43:23;16.20;99.90
22503;DHT22;11418;48.118;9.992;2023-03-23T08:47:23;16.50;99.90
22503;DHT22;11418;48.118;9.992;2023-03-23T08:51:24;16.60;99.90
22503;DHT22;11418;48.118;9.992;2023-03-23T08:55:25;17.10;99.90
22503;DHT22;11418;48.118;9.992;2023-03-23T08:59:26;17.50;99.90
22503;DHT22;11418;48.118;9.992;2023-03-23T09:03:27;17.90;99.90
22503;DHT22;11418;48.118;9.992;2023-03-23T09:07:28;17.70;99.90
22503;DHT22;11418;48.118;9.992;2023-03-23T09:11:29;17.80;99.90
22503;DHT22;11418;48.118;9.992;2023-03-23T09:15:29;17.70;99.90
22503;DHT22;11418;48.118;9.992;2023-03-23T09:19:31;17.90;99.90
22503;DHT22;11418;48.118;9.992;2023-03-23T09:23:33;18.10;99.90
22503;DHT22;11418;48.118;9.992;2023-03-23T09:27:34;18.10;99.90
22503;DHT22;11418;48.118;9.992;2023-03-23T09:31:36;17.80;99.90
22503;DHT22;11418;48.118;9.992;2023-03-23T09:35:38;18.10;99.90
22503;DHT22;11418;48.118;9.992;2023-03-23T09:39:41;18.00;99.90
22503;DHT22;11418;48.118;9.992;2023-03-23T09:48:56;18.40;99.90
22503;DHT22;11418;48.118;9.992;2023-03-23T09:52:44;18.60;99.90
22503;DHT22;11418;48.118;9.992;2023-03-23T09:56:47;19.00;99.90
22503;DHT22;11418;48.118;9.992;2023-03-23T10:05:40;19.20;99.90
22503;DHT22;11418;48.118;9.992;2023-03-23T10:09:43;18.90;99.90
22503;DHT22;11418;48.118;9.992;2023-03-23T10:18:50;19.00;99.90
22503;DHT22;11418;48.118;9.992;2023-03-23T10:31:22;19.10;99.90
22503;DHT22;11418;48.118;9.992;2023-03-23T10:35:32;19.50;99.90
22503;DHT22;11418;48.118;9.992;2023-03-23T10:39:44;18.90;99.90
22503;DHT22;11418;48.118;9.992;2023-03-23T10:43:46;18.40;99.90
22503;DHT22;11418;48.118;9.992;2023-03-23T10:48:03;18.10;99.90
22503;DHT22;11418;48.118;9.992;2023-03-23T10:52:25;18.00;99.90
22503;DHT22;11418;48.118;9.992;2023-03-23T10:56:34;18.40;99.90
22503;DHT22;11418;48.118;9.992;2023-03-23T11:00:43;18.40;99.90
22503;DHT22;11418;48.118;9.992;2023-03-23T11:05:00;18.80;99.90
22503;DHT22;11418;48.118;9.992;2023-03-23T11:09:14;19.40;99.90
22503;DHT22;11418;48.118;9.992;2023-03-23T11:13:17;19.50;99.90
22503;DHT22;11418;48.118;9.992;2023-03-23T11:17:25;19.60;99.30
22503;DHT22;11418;48.118;9.992;2023-03-23T11:21:27;19.50;99.90
22503;DHT22;11418;48.118;9.992;2023-03-23T11:25:28;19.70;99.90
22503;DHT22;11418;48.118;9.992;2023-03-23T11:29:29;20.50;99.00
22503;DHT22;11418;48.118;9.992;2023-03-23T11:33:38;20.60;96.80
22503;DHT22;11418;48.118;9.992;2023-03-23T11:37:44;20.20;99.50
22503;DHT22;11418;48.118;9.992;2023-03-23T11:41:46;19.90;98.90
22503;DHT22;11418;48.118;9.992;2023-03-23T11:46:09;19.90;98.50
22503;DHT22;11418;48.118;9.992;2023-03-23T11:50:19;19.30;98.90
22503;DHT22;11418;48.118;9.992;2023-03-23T11:54:32;19.00;99.60
22503;DHT22;11418;48.118;9.992;2023-03-23T11:58:33;19.00;99.90
22503;DHT22;11418;48.118;9.992;2023-03-23T12:07:19;19.10;99.90
22503;DHT22;11418;48.118;9.992;2023-03-23T12:11:45;19.60;99.90
22503;DHT22;11418;48.118;9.992;2023-03-23T12:16:23;20.00;99.90
22503;DHT22;11418;48.118;9.992;2023-03-23T12:20:39;21.30;96.20
22503;DHT22;11418;48.118;9.992;2023-03-23T12:33:59;21.20;95.10
22503;DHT22;11418;48.118;9.992;2023-03-23T12:46:39;18.40;98.90
22503;DHT22;11418;48.118;9.992;2023-03-23T12:55:01;18.50;99.00
22503;DHT22;11418;48.118;9.992;2023-03-23T12:59:19;18.80;98.80
22503;DHT22;11418;48.118;9.992;2023-03-23T13:03:42;19.10;97.70
22503;DHT22;11418;48.118;9.992;2023-03-23T13:07:49;19.60;97.80
22503;DHT22;11418;48.118;9.992;2023-03-23T13:11:54;20.10;97.80
22503;DHT22;11418;48.118;9.992;2023-03-23T13:24:44;19.50;98.10
22503;DHT22;11418;48.118;9.992;2023-03-23T13:33:11;19.20;99.10
22503;DHT22;11418;48.118;9.992;2023-03-23T13:37:22;19.10;99.90
22503;DHT22;11418;48.118;9.992;2023-03-23T13:41:24;19.10;98.50
22503;DHT22;11418;48.118;9.992;2023-03-23T13:49:32;19.00;98.00
22503;DHT22;11418;48.118;9.992;2023-03-23T13:53:48;18.70;99.90
22503;DHT22;11418;48.118;9.992;2023-03-23T13:57:52;18.60;99.90
22503;DHT22;11418;48.118;9.992;2023-03-23T14:02:30;18.00;99.90
22503;DHT22;11418;48.118;9.992;2023-03-23T14:06:35;17.50;99.90
22503;DHT22;11418;48.118;9.992;2023-03-23T14:10:42;17.20;99.90
22503;DHT22;11418;48.118;9.992;2023-03-23T14:14:46;17.10;99.90
22503;DHT22;11418;48.118;9.992;2023-03-23T14:18:54;17.00;99.90
22503;DHT22;11418;48.118;9.992;2023-03-23T14:22:56;16.80;99.90
22503;DHT22;11418;48.118;9.992;2023-03-23T14:27:19;16.50;99.90
22503;DHT22;11418;48.118;9.992;2023-03-23T14:31:23;16.70;99.90
22503;DHT22;11418;48.118;9.992;2023-03-23T14:35:35;16.50;99.90
22503;DHT22;11418;48.118;9.992;2023-03-23T14:39:36;16.60;99.90
22503;DHT22;11418;48.118;9.992;2023-03-23T14:43:37;16.40;99.90
22503;DHT22;11418;48.118;9.992;2023-03-23T14:47:42;16.30;99.90
22503;DHT22;11418;48.118;9.992;2023-03-23T14:51:51;16.30;99.90
22503;DHT22;11418;48.118;9.992;2023-03-23T14:55:53;16.20;99.90
22503;DHT22;11418;48.118;9.992;2023-03-23T14:59:56;15.70;99.90
22503;DHT22;11418;48.118;9.992;2023-03-23T15:04:06;15.50;99.90
22503;DHT22;11418;48.118;9.992;2023-03-23T15:08:14;15.10;99.90
22503;DHT22;11418;48.118;9.992;2023-03-23T15:12:24;14.90;99.90
22503;DHT22;11418;48.118;9.992;2023-03-23T15:16:28;15.00;99.90
22503;DHT22;11418;48.118;9.992;2023-03-23T15:20:32;14.80;99.90
22503;DHT22;11418;48.118;9.992;2023-03-23T15:24:43;15.20;99.90
22503;DHT22;11418;48.118;9.992;2023-03-23T15:28:44;15.10;99.90
22503;DHT22;11418;48.118;9.992;2023-03-23T15:32:45;15.20;99.90
22503;DHT22;11418;48.118;9.992;2023-03-23T15:36:51;15.30;99.90
22503;DHT22;11418;48.118;9.992;2023-03-23T15:40:55;15.30;99.90
22503;DHT22;11418;48.118;9.992;2023-03-23T15:49:16;15.30;99.90
22503;DHT22;11418;48.118;9.992;2023-03-23T15:53:50;15.50;99.90
22503;DHT22;11418;48.118;9.992;2023-03-23T15:57:52;15.50;99.90
22503;DHT22;11418;48.118;9.992;2023-03-23T16:01:52;15.50;99.90
22503;DHT22;11418;48.118;9.992;2023-03-23T16:05:54;15.60;99.90
22503;DHT22;11418;48.118;9.992;2023-03-23T16:09:56;15.50;99.90
22503;DHT22;11418;48.118;9.992;2023-03-23T16:13:57;15.30;99.90
22503;DHT22;11418;48.118;9.992;2023-03-23T16:17:58;15.30;99.90
22503;DHT22;11418;48.118;9.992;2023-03-23T16:21:58;15.20;99.90
22503;DHT22;11418;48.118;9.992;2023-03-23T16:25:59;15.10;99.90
22503;DHT22;11418;48.118;9.992;2023-03-23T16:30:00;15.10;99.90
22503;DHT22;11418;48.118;9.992;2023-03-23T16:34:02;15.00;99.90
22503;DHT22;11418;48.118;9.992;2023-03-23T16:38:04;15.00;99.90
22503;DHT22;11418;48.118;9.992;2023-03-23T16:42:04;14.90;99.90
22503;DHT22;11418;48.118;9.992;2023-03-23T16:46:05;14.90;99.90
22503;DHT22;11418;48.118;9.992;2023-03-23T16:50:08;14.70;99.90
22503;DHT22;11418;48.118;9.992;2023-03-23T16:54:11;14.60;99.90
22503;DHT22;11418;48.118;9.992;2023-03-23T16:58:11;14.40;99.90
22503;DHT22;11418;48.118;9.992;2023-03-23T17:02:12;14.30;99.90
22503;DHT22;11418;48.118;9.992;2023-03-23T17:06:12;14.30;99.90
22503;DHT22;11418;48.118;9.992;2023-03-23T17:10:14;14.30;99.90
22503;DHT22;11418;48.118;9.992;2023-03-23T17:14:15;14.30;99.90
22503;DHT22;11418;48.118;9.992;2023-03-23T17:18:15;14.10;99.90
22503;DHT22;11418;48.118;9.992;2023-03-23T17:22:16;13.90;99.90
22503;DHT22;11418;48.118;9.992;2023-03-23T17:26:17;13.70;99.90
22503;DHT22;11418;48.118;9.992;2023-03-23T17:30:18;13.60;99.90
22503;DHT22;11418;48.118;9.992;2023-03-23T17:34:18;13.50;99.90
22503;DHT22;11418;48.118;9.992;2023-03-23T17:38:19;13.40;99.90
22503;DHT22;11418;48.118;9.992;2023-03-23T17:42:22;13.30;99.90
22503;DHT22;11418;48.118;9.992;2023-03-23T17:46:22;13.10;99.90
22503;DHT22;11418;48.118;9.992;2023-03-23T17:50:23;13.00;99.90
22503;DHT22;11418;48.118;9.992;2023-03-23T17:54:25;12.90;99.90
22503;DHT22;11418;48.118;9.992;2023-03-23T17:58:26;13.00;99.90
22503;DHT22;11418;48.118;9.992;2023-03-23T18:02:26;13.00;99.90
22503;DHT22;11418;48.118;9.992;2023-03-23T18:06:27;13.00;99.90
22503;DHT22;11418;48.118;9.992;2023-03-23T18:10:27;12.80;99.90
22503;DHT22;11418;48.118;9.992;2023-03-23T18:14:28;12.70;99.90
22503;DHT22;11418;48.118;9.992;2023-03-23T18:18:29;12.80;99.90
22503;DHT22;11418;48.118;9.992;2023-03-23T18:22:30;13.00;99.90
22503;DHT22;11418;48.118;9.992;2023-03-23T18:26:30;12.80;99.90
22503;DHT22;11418;48.118;9.992;2023-03-23T18:30:32;12.50;99.90
22503;DHT22;11418;48.118;9.992;2023-03-23T18:34:33;12.90;99.90
22503;DHT22;11418;48.118;9.992;2023-03-23T18:38:35;13.10;99.90
22503;DHT22;11418;48.118;9.992;2023-03-23T18:42:37;12.70;99.90
22503;DHT22;11418;48.118;9.992;2023-03-23T18:46:39;12.50;99.90
22503;DHT22;11418;48.118;9.992;2023-03-23T18:50:39;12.40;99.90
22503;DHT22;11418;48.118;9.992;2023-03-23T18:54:40;12.40;99.90
22503;DHT22;11418;48.118;9.992;2023-03-23T18:58:44;12.40;99.90
22503;DHT22;11418;48.118;9.992;2023-03-23T19:02:45;12.40;99.90
22503;DHT22;11418;48.118;9.992;2023-03-23T19:06:47;12.50;99.90
22503;DHT22;11418;48.118;9.992;2023-03-23T19:10:47;12.70;99.90
22503;DHT22;11418;48.118;9.992;2023-03-23T19:14:48;12.80;99.90
22503;DHT22;11418;48.118;9.992;2023-03-23T19:18:50;13.00;99.90
22503;DHT22;11418;48.118;9.992;2023-03-23T19:22:51;12.80;99.90
22503;DHT22;11418;48.118;9.992;2023-03-23T19:26:51;12.60;99.90
22503;DHT22;11418;48.118;9.992;2023-03-23T19:30:55;12.60;99.90
22503;DHT22;11418;48.118;9.992;2023-03-23T19:34:56;12.70;99.90
22503;DHT22;11418;48.118;9.992;2023-03-23T19:38:57;12.70;99.90
22503;DHT22;11418;48.118;9.992;2023-03-23T19:42:58;12.50;99.90
22503;DHT22;11418;48.118;9.992;2023-03-23T19:46:59;12.40;99.90
22503;DHT22;11418;48.118;9.992;2023-03-23T19:51:00;12.50;99.90
22503;DHT22;11418;48.118;9.992;2023-03-23T19:55:00;12.70;99.90
22503;DHT22;11418;48.118;9.992;2023-03-23T19:59:01;12.70;99.90
22503;DHT22;11418;48.118;9.992;2023-03-23T20:03:02;12.70;99.90
22503;DHT22;11418;48.118;9.992;2023-03-23T20:07:03;12.50;99.90
22503;DHT22;11418;48.118;9.992;2023-03-23T20:11:15;12.60;99.90
22503;DHT22;11418;48.118;9.992;2023-03-23T20:15:16;12.70;99.90
22503;DHT22;11418;48.118;9.992;2023-03-23T20:19:17;12.50;99.90
22503;DHT22;11418;48.118;9.992;2023-03-23T20:23:17;12.70;99.90
22503;DHT22;11418;48.118;9.992;2023-03-23T20:27:18;12.60;99.90
22503;DHT22;11418;48.118;9.992;2023-03-23T20:31:22;12.30;99.90
22503;DHT22;11418;48.118;9.992;2023-03-23T20:35:23;12.30;99.90
22503;DHT22;11418;48.118;9.992;2023-03-23T20:39:25;12.30;99.90
22503;DHT22;11418;48.118;9.992;2023-03-23T20:43:28;12.40;99.90
22503;DHT22;11418;48.118;9.992;2023-03-23T20:47:29;12.30;99.90
22503;DHT22;11418;48.118;9.992;2023-03-23T20:51:31;12.40;99.90
22503;DHT22;11418;48.118;9.992;2023-03-23T20:55:32;12.40;99.90
22503;DHT22;11418;48.118;9.992;2023-03-23T20:59:33;12.30;99.90
22503;DHT22;11418;48.118;9.992;2023-03-23T21:03:37;12.20;99.90
22503;DHT22;11418;48.118;9.992;2023-03-23T21:07:37;12.30;99.90
22503;DHT22;11418;48.118;9.992;2023-03-23T21:11:38;12.40;99.90
22503;DHT22;11418;48.118;9.992;2023-03-23T21:15:39;12.20;99.90
22503;DHT22;11418;48.118;9.992;2023-03-23T21:19:40;12.30;99.90
22503;DHT22;11418;48.118;9.992;2023-03-23T21:23:40;12.20;99.90
22503;DHT22;11418;48.118;9.992;2023-03-23T21:27:45;12.30;99.90
22503;DHT22;11418;48.118;9.992;2023-03-23T21:31:46;12.20;99.90
22503;DHT22;11418;48.118;9.992;2023-03-23T21:35:46;12.10;99.90
22503;DHT22;11418;48.118;9.992;2023-03-23T21:39:47;12.10;99.90
22503;DHT22;11418;48.118;9.992;2023-03-23T21:43:48;12.20;99.90
22503;DHT22;11418;48.118;9.992;2023-03-23T21:47:49;12.40;99.90
22503;DHT22;11418;48.118;9.992;2023-03-23T21:51:56;12.20;99.90
22503;DHT22;11418;48.118;9.992;2023-03-23T21:55:56;11.80;99.90
22503;DHT22;11418;48.118;9.992;2023-03-23T21:59:57;11.60;99.90
22503;DHT22;11418;48.118;9.992;2023-03-23T22:03:58;11.50;99.90
22503;DHT22;11418;48.118;9.992;2023-03-23T22:07:58;11.40;99.90
22503;DHT22;11418;48.118;9.992;2023-03-23T22:12:00;11.50;99.90
22503;DHT22;11418;48.118;9.992;2023-03-23T22:16:02;11.40;99.90
22503;DHT22;11418;48.118;9.992;2023-03-23T22:20:05;11.20;99.90
22503;DHT22;11418;48.118;9.992;2023-03-23T22:24:06;11.10;99.90
22503;DHT22;11418;48.118;9.992;2023-03-23T22:28:07;11.20;99.90
22503;DHT22;11418;48.118;9.992;2023-03-23T22:32:07;11.40;99.90
22503;DHT22;11418;48.118;9.992;2023-03-23T22:36:08;11.10;99.90
22503;DHT22;11418;48.118;9.992;2023-03-23T22:40:09;11.10;99.90
22503;DHT22;11418;48.118;9.992;2023-03-23T22:44:13;10.90;99.90
22503;DHT22;11418;48.118;9.992;2023-03-23T22:48:14;10.70;99.90
22503;DHT22;11418;48.118;9.992;2023-03-23T22:52:15;10.40;99.90
22503;DHT22;11418;48.118;9.992;2023-03-23T22:56:16;10.60;99.90
22503;DHT22;11418;48.118;9.992;2023-03-23T23:00:17;10.80;99.90
22503;DHT22;11418;48.118;9.992;2023-03-23T23:04:17;11.10;99.90
22503;DHT22;11418;48.118;9.992;2023-03-23T23:08:18;11.10;99.90
22503;DHT22;11418;48.118;9.992;2023-03-23T23:12:19;11.30;99.90
22503;DHT22;11418;48.118;9.992;2023-03-23T23:16:21;11.30;99.90
22503;DHT22;11418;48.118;9.992;2023-03-23T23:20:23;11.20;99.90
22503;DHT22;11418;48.118;9.992;2023-03-23T23:24:24;11.00;99.90
22503;DHT22;11418;48.118;9.992;2023-03-23T23:28:26;10.80;99.90
22503;DHT22;11418;48.118;9.992;2023-03-23T23:32:26;10.60;99.90
22503;DHT22;11418;48.118;9.992;2023-03-23T23:36:31;10.50;99.90
22503;DHT22;11418;48.118;9.992;2023-03-23T23:40:32;10.40;99.90
22503;DHT22;11418;48.118;9.992;2023-03-23T23:44:34;10.30;99.90
22503;DHT22;11418;48.118;9.992;2023-03-23T23:48:35;10.20;99.90
22503;DHT22;11418;48.118;9.992;2023-03-23T23:52:36;10.00;99.90
22503;DHT22;11418;48.118;9.992;2023-03-23T23:56:37;9.90;99.90
